Terminal Aerodrome Forecast
Issued by NWS Brownsville, TX

Home | Current Version | Previous Version | Text Only | Print | Product List | Glossary On
Versions: 1 2 3 4 5 6 7 8 9 10 11 12 13 14 15 16 17 18 19
000
FTUS44 KBRO 020500
TAFHRL
TAF
KHRL 020524Z 0206/0306 14006KT P6SM BKN150
     FM021200 14005KT P6SM BKN035
     FM021600 17006KT P6SM VCTS BKN035CB PROB30 0216/0220 2SM TSRA
      BKN025CB
     FM022000 11010KT P6SM SCT040 BKN200=

USA.gov is the U.S. government's official web portal to all federal, state and local government web resources and services.